sensor_id;sensor_type;location;lat;lon;timestamp;P1;durP1;ratioP1;P2;durP2;ratioP2
9854;SDS011;4966;48.112;9.282;2022-12-29T00:01:24;9.63;;;2.97;;
9854;SDS011;4966;48.112;9.282;2022-12-29T00:03:49;9.02;;;3.63;;
9854;SDS011;4966;48.112;9.282;2022-12-29T00:06:14;8.98;;;3.30;;
9854;SDS011;4966;48.112;9.282;2022-12-29T00:08:40;6.60;;;3.22;;
9854;SDS011;4966;48.112;9.282;2022-12-29T00:11:10;7.78;;;3.58;;
9854;SDS011;4966;48.112;9.282;2022-12-29T00:13:40;8.05;;;3.40;;
9854;SDS011;4966;48.112;9.282;2022-12-29T00:16:24;7.97;;;3.67;;
9854;SDS011;4966;48.112;9.282;2022-12-29T00:18:50;6.10;;;3.28;;
9854;SDS011;4966;48.112;9.282;2022-12-29T00:21:17;6.82;;;2.40;;
9854;SDS011;4966;48.112;9.282;2022-12-29T00:24:02;6.15;;;2.33;;
9854;SDS011;4966;48.112;9.282;2022-12-29T00:26:47;5.68;;;2.58;;
9854;SDS011;4966;48.112;9.282;2022-12-29T00:29:36;4.80;;;2.20;;
9854;SDS011;4966;48.112;9.282;2022-12-29T00:32:20;4.80;;;2.50;;
9854;SDS011;4966;48.112;9.282;2022-12-29T00:35:04;9.07;;;3.80;;
9854;SDS011;4966;48.112;9.282;2022-12-29T00:37:39;12.73;;;5.05;;
9854;SDS011;4966;48.112;9.282;2022-12-29T00:40:27;15.18;;;6.18;;
9854;SDS011;4966;48.112;9.282;2022-12-29T00:43:10;12.77;;;5.75;;
9854;SDS011;4966;48.112;9.282;2022-12-29T00:45:54;13.85;;;5.00;;
9854;SDS011;4966;48.112;9.282;2022-12-29T00:48:20;9.77;;;4.50;;
9854;SDS011;4966;48.112;9.282;2022-12-29T00:51:05;14.88;;;5.78;;
9854;SDS011;4966;48.112;9.282;2022-12-29T00:53:31;13.77;;;5.53;;
9854;SDS011;4966;48.112;9.282;2022-12-29T00:55:57;13.32;;;5.57;;
9854;SDS011;4966;48.112;9.282;2022-12-29T00:58:23;11.20;;;5.25;;
9854;SDS011;4966;48.112;9.282;2022-12-29T01:00:48;15.10;;;5.13;;
9854;SDS011;4966;48.112;9.282;2022-12-29T01:03:13;10.20;;;4.72;;
9854;SDS011;4966;48.112;9.282;2022-12-29T01:05:39;10.27;;;4.32;;
9854;SDS011;4966;48.112;9.282;2022-12-29T01:08:04;8.20;;;3.97;;
9854;SDS011;4966;48.112;9.282;2022-12-29T01:10:30;7.43;;;3.60;;
9854;SDS011;4966;48.112;9.282;2022-12-29T01:12:55;8.63;;;3.67;;
9854;SDS011;4966;48.112;9.282;2022-12-29T01:15:20;8.55;;;3.88;;
9854;SDS011;4966;48.112;9.282;2022-12-29T01:17:46;9.32;;;3.72;;
9854;SDS011;4966;48.112;9.282;2022-12-29T01:20:12;9.85;;;4.13;;
9854;SDS011;4966;48.112;9.282;2022-12-29T01:22:38;7.07;;;3.55;;
9854;SDS011;4966;48.112;9.282;2022-12-29T01:25:04;9.43;;;4.35;;
9854;SDS011;4966;48.112;9.282;2022-12-29T01:27:30;9.43;;;3.80;;
9854;SDS011;4966;48.112;9.282;2022-12-29T01:29:55;7.75;;;3.92;;
9854;SDS011;4966;48.112;9.282;2022-12-29T01:32:21;8.57;;;4.18;;
9854;SDS011;4966;48.112;9.282;2022-12-29T01:34:47;7.93;;;3.88;;
9854;SDS011;4966;48.112;9.282;2022-12-29T01:37:12;6.95;;;3.80;;
9854;SDS011;4966;48.112;9.282;2022-12-29T01:39:37;8.70;;;3.97;;
9854;SDS011;4966;48.112;9.282;2022-12-29T01:42:03;10.13;;;3.90;;
9854;SDS011;4966;48.112;9.282;2022-12-29T01:47:15;6.82;;;3.75;;
9854;SDS011;4966;48.112;9.282;2022-12-29T01:49:47;8.05;;;3.47;;
9854;SDS011;4966;48.112;9.282;2022-12-29T01:52:13;8.57;;;3.47;;
9854;SDS011;4966;48.112;9.282;2022-12-29T01:54:43;6.50;;;3.67;;
9854;SDS011;4966;48.112;9.282;2022-12-29T01:57:15;7.53;;;3.72;;
9854;SDS011;4966;48.112;9.282;2022-12-29T02:00:07;8.02;;;3.83;;
9854;SDS011;4966;48.112;9.282;2022-12-29T02:02:33;8.18;;;3.83;;
9854;SDS011;4966;48.112;9.282;2022-12-29T02:04:59;7.50;;;4.05;;
9854;SDS011;4966;48.112;9.282;2022-12-29T02:07:32;6.60;;;3.45;;
9854;SDS011;4966;48.112;9.282;2022-12-29T02:09:58;9.45;;;4.10;;
9854;SDS011;4966;48.112;9.282;2022-12-29T02:12:26;9.15;;;4.00;;
9854;SDS011;4966;48.112;9.282;2022-12-29T02:14:53;7.55;;;3.55;;
9854;SDS011;4966;48.112;9.282;2022-12-29T02:22:39;7.80;;;3.33;;
9854;SDS011;4966;48.112;9.282;2022-12-29T02:31:28;7.25;;;3.50;;
9854;SDS011;4966;48.112;9.282;2022-12-29T02:42:59;4.80;;;2.65;;
9854;SDS011;4966;48.112;9.282;2022-12-29T02:45:37;5.60;;;2.50;;
9854;SDS011;4966;48.112;9.282;2022-12-29T02:48:12;4.28;;;2.25;;
9854;SDS011;4966;48.112;9.282;2022-12-29T02:51:12;4.60;;;2.47;;
9854;SDS011;4966;48.112;9.282;2022-12-29T02:53:34;5.93;;;2.83;;
9854;SDS011;4966;48.112;9.282;2022-12-29T02:56:20;7.80;;;3.03;;
9854;SDS011;4966;48.112;9.282;2022-12-29T02:58:46;4.82;;;2.70;;
9854;SDS011;4966;48.112;9.282;2022-12-29T03:01:21;5.22;;;2.65;;
9854;SDS011;4966;48.112;9.282;2022-12-29T03:04:36;4.85;;;2.30;;
9854;SDS011;4966;48.112;9.282;2022-12-29T03:10:01;4.20;;;2.38;;
9854;SDS011;4966;48.112;9.282;2022-12-29T03:12:42;4.63;;;2.33;;
9854;SDS011;4966;48.112;9.282;2022-12-29T03:18:32;5.78;;;2.35;;
9854;SDS011;4966;48.112;9.282;2022-12-29T03:21:14;3.88;;;2.00;;
9854;SDS011;4966;48.112;9.282;2022-12-29T03:23:45;5.00;;;2.00;;
9854;SDS011;4966;48.112;9.282;2022-12-29T03:26:15;4.03;;;1.98;;
9854;SDS011;4966;48.112;9.282;2022-12-29T03:28:47;3.85;;;2.00;;
9854;SDS011;4966;48.112;9.282;2022-12-29T03:31:17;3.53;;;1.60;;
9854;SDS011;4966;48.112;9.282;2022-12-29T03:33:45;3.40;;;1.70;;
9854;SDS011;4966;48.112;9.282;2022-12-29T03:36:14;3.83;;;1.60;;
9854;SDS011;4966;48.112;9.282;2022-12-29T03:38:59;4.38;;;1.88;;
9854;SDS011;4966;48.112;9.282;2022-12-29T03:41:31;3.10;;;1.52;;
9854;SDS011;4966;48.112;9.282;2022-12-29T03:43:58;3.50;;;1.52;;
9854;SDS011;4966;48.112;9.282;2022-12-29T03:46:23;2.60;;;1.23;;
9854;SDS011;4966;48.112;9.282;2022-12-29T03:48:49;3.03;;;1.55;;
9854;SDS011;4966;48.112;9.282;2022-12-29T03:51:14;2.92;;;1.50;;
9854;SDS011;4966;48.112;9.282;2022-12-29T03:53:39;3.03;;;1.50;;
9854;SDS011;4966;48.112;9.282;2022-12-29T03:56:05;3.03;;;1.35;;
9854;SDS011;4966;48.112;9.282;2022-12-29T03:58:30;3.47;;;1.50;;
9854;SDS011;4966;48.112;9.282;2022-12-29T04:00:56;6.38;;;2.08;;
9854;SDS011;4966;48.112;9.282;2022-12-29T04:03:21;3.30;;;1.38;;
9854;SDS011;4966;48.112;9.282;2022-12-29T04:05:47;4.38;;;1.65;;
9854;SDS011;4966;48.112;9.282;2022-12-29T04:08:12;2.75;;;1.52;;
9854;SDS011;4966;48.112;9.282;2022-12-29T04:10:37;2.45;;;1.30;;
9854;SDS011;4966;48.112;9.282;2022-12-29T04:13:03;3.72;;;2.08;;
9854;SDS011;4966;48.112;9.282;2022-12-29T04:15:28;2.63;;;1.38;;
9854;SDS011;4966;48.112;9.282;2022-12-29T04:17:53;2.80;;;1.40;;
9854;SDS011;4966;48.112;9.282;2022-12-29T04:20:19;2.80;;;1.30;;
9854;SDS011;4966;48.112;9.282;2022-12-29T04:23:04;2.53;;;1.25;;
9854;SDS011;4966;48.112;9.282;2022-12-29T04:25:30;2.97;;;1.55;;
9854;SDS011;4966;48.112;9.282;2022-12-29T04:27:57;2.50;;;1.40;;
9854;SDS011;4966;48.112;9.282;2022-12-29T04:30:23;2.90;;;1.50;;
9854;SDS011;4966;48.112;9.282;2022-12-29T04:32:48;3.50;;;1.50;;
9854;SDS011;4966;48.112;9.282;2022-12-29T04:35:13;5.90;;;1.73;;
9854;SDS011;4966;48.112;9.282;2022-12-29T04:37:39;3.58;;;1.40;;
9854;SDS011;4966;48.112;9.282;2022-12-29T04:40:04;3.55;;;1.60;;
9854;SDS011;4966;48.112;9.282;2022-12-29T04:42:30;3.28;;;1.70;;
9854;SDS011;4966;48.112;9.282;2022-12-29T04:44:56;3.22;;;1.40;;
9854;SDS011;4966;48.112;9.282;2022-12-29T04:47:21;4.40;;;2.45;;
9854;SDS011;4966;48.112;9.282;2022-12-29T04:49:46;4.95;;;2.10;;
9854;SDS011;4966;48.112;9.282;2022-12-29T04:52:12;3.78;;;2.03;;
9854;SDS011;4966;48.112;9.282;2022-12-29T04:54:37;3.40;;;1.60;;
9854;SDS011;4966;48.112;9.282;2022-12-29T04:57:02;3.65;;;1.50;;
9854;SDS011;4966;48.112;9.282;2022-12-29T04:59:28;3.25;;;1.60;;
9854;SDS011;4966;48.112;9.282;2022-12-29T05:01:53;5.05;;;3.33;;
9854;SDS011;4966;48.112;9.282;2022-12-29T05:04:18;4.55;;;2.53;;
9854;SDS011;4966;48.112;9.282;2022-12-29T05:06:44;2.90;;;1.55;;
9854;SDS011;4966;48.112;9.282;2022-12-29T05:09:09;3.13;;;1.58;;
9854;SDS011;4966;48.112;9.282;2022-12-29T05:11:34;3.35;;;1.65;;
9854;SDS011;4966;48.112;9.282;2022-12-29T05:14:00;3.25;;;1.50;;
9854;SDS011;4966;48.112;9.282;2022-12-29T05:16:25;16.90;;;8.20;;
9854;SDS011;4966;48.112;9.282;2022-12-29T05:18:51;4.03;;;1.98;;
9854;SDS011;4966;48.112;9.282;2022-12-29T05:21:16;6.63;;;1.60;;
9854;SDS011;4966;48.112;9.282;2022-12-29T05:23:41;4.13;;;2.00;;
9854;SDS011;4966;48.112;9.282;2022-12-29T05:26:07;5.22;;;1.90;;
9854;SDS011;4966;48.112;9.282;2022-12-29T05:28:32;3.35;;;1.70;;
9854;SDS011;4966;48.112;9.282;2022-12-29T05:30:57;3.70;;;2.15;;
9854;SDS011;4966;48.112;9.282;2022-12-29T05:33:22;4.28;;;2.33;;
9854;SDS011;4966;48.112;9.282;2022-12-29T05:35:48;4.88;;;2.50;;
9854;SDS011;4966;48.112;9.282;2022-12-29T05:38:13;5.13;;;2.83;;
9854;SDS011;4966;48.112;9.282;2022-12-29T05:40:39;4.55;;;2.60;;
9854;SDS011;4966;48.112;9.282;2022-12-29T05:43:04;4.97;;;2.72;;
9854;SDS011;4966;48.112;9.282;2022-12-29T05:45:29;7.05;;;4.22;;
9854;SDS011;4966;48.112;9.282;2022-12-29T05:47:55;6.30;;;3.88;;
9854;SDS011;4966;48.112;9.282;2022-12-29T05:50:20;5.40;;;3.28;;
9854;SDS011;4966;48.112;9.282;2022-12-29T05:52:45;5.43;;;3.20;;
9854;SDS011;4966;48.112;9.282;2022-12-29T05:55:11;6.20;;;2.97;;
9854;SDS011;4966;48.112;9.282;2022-12-29T05:57:37;13.30;;;6.38;;
9854;SDS011;4966;48.112;9.282;2022-12-29T06:00:03;8.13;;;4.50;;
9854;SDS011;4966;48.112;9.282;2022-12-29T06:02:30;4.85;;;2.50;;
9854;SDS011;4966;48.112;9.282;2022-12-29T06:04:55;3.80;;;2.15;;
9854;SDS011;4966;48.112;9.282;2022-12-29T06:07:20;4.30;;;1.90;;
9854;SDS011;4966;48.112;9.282;2022-12-29T06:09:45;4.75;;;2.22;;
9854;SDS011;4966;48.112;9.282;2022-12-29T06:12:11;4.22;;;2.33;;
9854;SDS011;4966;48.112;9.282;2022-12-29T06:14:36;3.70;;;2.00;;
9854;SDS011;4966;48.112;9.282;2022-12-29T06:17:02;7.55;;;3.33;;
9854;SDS011;4966;48.112;9.282;2022-12-29T06:19:27;6.25;;;3.15;;
9854;SDS011;4966;48.112;9.282;2022-12-29T06:21:52;3.53;;;1.95;;
9854;SDS011;4966;48.112;9.282;2022-12-29T06:24:18;9.27;;;2.65;;
9854;SDS011;4966;48.112;9.282;2022-12-29T06:26:44;5.63;;;2.50;;
9854;SDS011;4966;48.112;9.282;2022-12-29T06:29:09;7.63;;;2.70;;
9854;SDS011;4966;48.112;9.282;2022-12-29T06:31:34;5.85;;;2.40;;
9854;SDS011;4966;48.112;9.282;2022-12-29T06:34:00;6.60;;;2.55;;
9854;SDS011;4966;48.112;9.282;2022-12-29T06:36:25;5.43;;;2.65;;
9854;SDS011;4966;48.112;9.282;2022-12-29T06:38:51;4.93;;;2.47;;
9854;SDS011;4966;48.112;9.282;2022-12-29T06:41:19;8.02;;;3.03;;
9854;SDS011;4966;48.112;9.282;2022-12-29T06:43:45;10.15;;;4.50;;
9854;SDS011;4966;48.112;9.282;2022-12-29T06:46:11;32.65;;;12.85;;
9854;SDS011;4966;48.112;9.282;2022-12-29T06:48:36;25.67;;;9.77;;
9854;SDS011;4966;48.112;9.282;2022-12-29T06:51:01;11.23;;;5.00;;
9854;SDS011;4966;48.112;9.282;2022-12-29T06:53:27;9.52;;;4.40;;
9854;SDS011;4966;48.112;9.282;2022-12-29T06:55:52;7.68;;;3.35;;
9854;SDS011;4966;48.112;9.282;2022-12-29T06:58:18;13.38;;;4.50;;
9854;SDS011;4966;48.112;9.282;2022-12-29T07:00:44;8.60;;;3.80;;
9854;SDS011;4966;48.112;9.282;2022-12-29T07:03:09;12.80;;;4.20;;
9854;SDS011;4966;48.112;9.282;2022-12-29T07:05:35;8.73;;;4.07;;
9854;SDS011;4966;48.112;9.282;2022-12-29T07:08:00;14.88;;;6.93;;
9854;SDS011;4966;48.112;9.282;2022-12-29T07:10:26;11.80;;;5.55;;
9854;SDS011;4966;48.112;9.282;2022-12-29T07:12:51;5.65;;;2.92;;
9854;SDS011;4966;48.112;9.282;2022-12-29T07:15:16;5.97;;;3.28;;
9854;SDS011;4966;48.112;9.282;2022-12-29T07:17:42;6.90;;;3.67;;
9854;SDS011;4966;48.112;9.282;2022-12-29T07:20:08;6.03;;;2.85;;
9854;SDS011;4966;48.112;9.282;2022-12-29T07:22:34;6.50;;;3.03;;
9854;SDS011;4966;48.112;9.282;2022-12-29T07:24:59;6.68;;;3.70;;
9854;SDS011;4966;48.112;9.282;2022-12-29T07:27:25;8.30;;;4.25;;
9854;SDS011;4966;48.112;9.282;2022-12-29T07:29:50;7.47;;;3.83;;
9854;SDS011;4966;48.112;9.282;2022-12-29T07:32:15;8.05;;;4.85;;
9854;SDS011;4966;48.112;9.282;2022-12-29T07:34:41;11.07;;;4.97;;
9854;SDS011;4966;48.112;9.282;2022-12-29T07:37:06;11.32;;;5.60;;
9854;SDS011;4966;48.112;9.282;2022-12-29T07:39:32;13.68;;;5.45;;
9854;SDS011;4966;48.112;9.282;2022-12-29T07:41:57;11.85;;;6.03;;
9854;SDS011;4966;48.112;9.282;2022-12-29T07:44:23;17.50;;;7.82;;
9854;SDS011;4966;48.112;9.282;2022-12-29T07:46:48;18.58;;;9.00;;
9854;SDS011;4966;48.112;9.282;2022-12-29T07:49:13;19.35;;;9.15;;
9854;SDS011;4966;48.112;9.282;2022-12-29T07:51:39;20.80;;;10.48;;
9854;SDS011;4966;48.112;9.282;2022-12-29T07:54:04;13.55;;;7.55;;
9854;SDS011;4966;48.112;9.282;2022-12-29T07:56:29;15.52;;;7.22;;
9854;SDS011;4966;48.112;9.282;2022-12-29T07:58:55;15.35;;;6.82;;
9854;SDS011;4966;48.112;9.282;2022-12-29T08:01:20;6.75;;;4.22;;
9854;SDS011;4966;48.112;9.282;2022-12-29T08:03:48;10.70;;;4.35;;
9854;SDS011;4966;48.112;9.282;2022-12-29T08:06:13;10.73;;;4.60;;
9854;SDS011;4966;48.112;9.282;2022-12-29T08:08:39;7.47;;;3.75;;
9854;SDS011;4966;48.112;9.282;2022-12-29T08:11:04;11.70;;;5.20;;
9854;SDS011;4966;48.112;9.282;2022-12-29T08:13:30;10.68;;;5.65;;
9854;SDS011;4966;48.112;9.282;2022-12-29T08:15:57;10.13;;;4.88;;
9854;SDS011;4966;48.112;9.282;2022-12-29T08:18:22;9.35;;;4.47;;
9854;SDS011;4966;48.112;9.282;2022-12-29T08:20:48;8.85;;;3.97;;
9854;SDS011;4966;48.112;9.282;2022-12-29T08:23:13;8.70;;;4.38;;
9854;SDS011;4966;48.112;9.282;2022-12-29T08:25:38;11.57;;;4.13;;
9854;SDS011;4966;48.112;9.282;2022-12-29T08:28:04;9.07;;;4.43;;
9854;SDS011;4966;48.112;9.282;2022-12-29T08:30:29;13.32;;;5.80;;
9854;SDS011;4966;48.112;9.282;2022-12-29T08:32:54;12.00;;;5.82;;
9854;SDS011;4966;48.112;9.282;2022-12-29T08:35:20;10.70;;;5.20;;
9854;SDS011;4966;48.112;9.282;2022-12-29T08:37:45;11.43;;;6.38;;
9854;SDS011;4966;48.112;9.282;2022-12-29T08:40:10;15.75;;;8.02;;
9854;SDS011;4966;48.112;9.282;2022-12-29T08:42:36;24.55;;;10.43;;
9854;SDS011;4966;48.112;9.282;2022-12-29T08:45:01;24.40;;;11.63;;
9854;SDS011;4966;48.112;9.282;2022-12-29T08:47:27;32.15;;;13.85;;
9854;SDS011;4966;48.112;9.282;2022-12-29T08:49:52;31.85;;;13.18;;
9854;SDS011;4966;48.112;9.282;2022-12-29T08:52:18;22.75;;;12.05;;
9854;SDS011;4966;48.112;9.282;2022-12-29T08:54:44;24.02;;;11.02;;
9854;SDS011;4966;48.112;9.282;2022-12-29T08:57:09;23.23;;;10.55;;
9854;SDS011;4966;48.112;9.282;2022-12-29T08:59:34;21.77;;;9.45;;
9854;SDS011;4966;48.112;9.282;2022-12-29T09:02:00;20.52;;;10.38;;
9854;SDS011;4966;48.112;9.282;2022-12-29T09:04:26;19.13;;;8.85;;
9854;SDS011;4966;48.112;9.282;2022-12-29T09:06:52;14.93;;;6.80;;
9854;SDS011;4966;48.112;9.282;2022-12-29T09:09:17;12.55;;;6.40;;
9854;SDS011;4966;48.112;9.282;2022-12-29T09:11:43;15.98;;;7.13;;
9854;SDS011;4966;48.112;9.282;2022-12-29T09:14:08;12.10;;;5.78;;
9854;SDS011;4966;48.112;9.282;2022-12-29T09:16:34;12.15;;;6.00;;
9854;SDS011;4966;48.112;9.282;2022-12-29T09:19:00;13.48;;;5.85;;
9854;SDS011;4966;48.112;9.282;2022-12-29T09:21:26;8.20;;;4.32;;
9854;SDS011;4966;48.112;9.282;2022-12-29T09:23:51;10.35;;;3.83;;
9854;SDS011;4966;48.112;9.282;2022-12-29T09:26:17;9.70;;;4.20;;
9854;SDS011;4966;48.112;9.282;2022-12-29T09:28:42;9.70;;;4.28;;
9854;SDS011;4966;48.112;9.282;2022-12-29T09:31:09;8.05;;;4.07;;
9854;SDS011;4966;48.112;9.282;2022-12-29T09:33:34;6.47;;;3.03;;
9854;SDS011;4966;48.112;9.282;2022-12-29T09:36:00;5.78;;;2.47;;
9854;SDS011;4966;48.112;9.282;2022-12-29T09:38:25;4.68;;;2.58;;
9854;SDS011;4966;48.112;9.282;2022-12-29T09:40:53;5.82;;;2.08;;
9854;SDS011;4966;48.112;9.282;2022-12-29T09:48:39;7.38;;;2.30;;
9854;SDS011;4966;48.112;9.282;2022-12-29T09:51:10;4.55;;;2.00;;
9854;SDS011;4966;48.112;9.282;2022-12-29T09:53:44;8.10;;;3.30;;
9854;SDS011;4966;48.112;9.282;2022-12-29T09:56:19;6.05;;;2.60;;
9854;SDS011;4966;48.112;9.282;2022-12-29T10:01:34;7.95;;;2.70;;
9854;SDS011;4966;48.112;9.282;2022-12-29T10:04:06;4.45;;;2.17;;
9854;SDS011;4966;48.112;9.282;2022-12-29T10:06:46;5.78;;;2.33;;
9854;SDS011;4966;48.112;9.282;2022-12-29T10:25:29;10.32;;;4.00;;
9854;SDS011;4966;48.112;9.282;2022-12-29T10:28:01;7.80;;;3.30;;
9854;SDS011;4966;48.112;9.282;2022-12-29T10:30:32;3.50;;;1.75;;
9854;SDS011;4966;48.112;9.282;2022-12-29T10:33:03;6.30;;;2.40;;
9854;SDS011;4966;48.112;9.282;2022-12-29T10:35:34;5.22;;;2.10;;
9854;SDS011;4966;48.112;9.282;2022-12-29T10:40:45;6.05;;;2.25;;
9854;SDS011;4966;48.112;9.282;2022-12-29T10:45:46;21.63;;;6.55;;
9854;SDS011;4966;48.112;9.282;2022-12-29T10:48:15;6.10;;;1.90;;
9854;SDS011;4966;48.112;9.282;2022-12-29T10:50:47;4.40;;;1.65;;
9854;SDS011;4966;48.112;9.282;2022-12-29T10:53:25;5.43;;;2.72;;
9854;SDS011;4966;48.112;9.282;2022-12-29T10:55:55;8.20;;;1.80;;
9854;SDS011;4966;48.112;9.282;2022-12-29T10:58:21;6.18;;;2.33;;
9854;SDS011;4966;48.112;9.282;2022-12-29T11:00:51;4.55;;;1.98;;
9854;SDS011;4966;48.112;9.282;2022-12-29T11:06:15;18.17;;;5.88;;
9854;SDS011;4966;48.112;9.282;2022-12-29T11:08:57;41.78;;;13.02;;
9854;SDS011;4966;48.112;9.282;2022-12-29T11:11:27;9.95;;;2.97;;
9854;SDS011;4966;48.112;9.282;2022-12-29T11:14:10;4.78;;;2.33;;
9854;SDS011;4966;48.112;9.282;2022-12-29T11:16:56;6.72;;;2.00;;
9854;SDS011;4966;48.112;9.282;2022-12-29T11:19:31;7.78;;;3.25;;
9854;SDS011;4966;48.112;9.282;2022-12-29T11:24:53;4.80;;;1.95;;
9854;SDS011;4966;48.112;9.282;2022-12-29T11:27:23;5.65;;;2.20;;
9854;SDS011;4966;48.112;9.282;2022-12-29T11:29:51;10.52;;;3.63;;
9854;SDS011;4966;48.112;9.282;2022-12-29T11:32:24;14.93;;;4.63;;
9854;SDS011;4966;48.112;9.282;2022-12-29T11:34:52;11.75;;;4.32;;
9854;SDS011;4966;48.112;9.282;2022-12-29T11:39:56;12.20;;;2.20;;
9854;SDS011;4966;48.112;9.282;2022-12-29T11:42:36;3.63;;;2.17;;
9854;SDS011;4966;48.112;9.282;2022-12-29T11:45:15;4.03;;;1.40;;
9854;SDS011;4966;48.112;9.282;2022-12-29T11:47:53;2.95;;;1.30;;
9854;SDS011;4966;48.112;9.282;2022-12-29T11:50:37;4.97;;;1.30;;
9854;SDS011;4966;48.112;9.282;2022-12-29T11:53:15;4.50;;;1.42;;
9854;SDS011;4966;48.112;9.282;2022-12-29T11:55:55;7.47;;;1.13;;
9854;SDS011;4966;48.112;9.282;2022-12-29T11:58:30;2.75;;;1.30;;
9854;SDS011;4966;48.112;9.282;2022-12-29T12:01:00;3.30;;;1.35;;
9854;SDS011;4966;48.112;9.282;2022-12-29T12:03:30;5.93;;;1.23;;
9854;SDS011;4966;48.112;9.282;2022-12-29T12:06:03;1.50;;;0.95;;
9854;SDS011;4966;48.112;9.282;2022-12-29T12:11:24;4.22;;;1.38;;
9854;SDS011;4966;48.112;9.282;2022-12-29T12:14:20;4.85;;;1.25;;
9854;SDS011;4966;48.112;9.282;2022-12-29T12:16:53;2.00;;;1.13;;
9854;SDS011;4966;48.112;9.282;2022-12-29T12:19:32;3.75;;;1.20;;
9854;SDS011;4966;48.112;9.282;2022-12-29T12:24:55;7.07;;;1.65;;
9854;SDS011;4966;48.112;9.282;2022-12-29T12:27:38;3.17;;;1.42;;
9854;SDS011;4966;48.112;9.282;2022-12-29T12:32:39;4.65;;;1.13;;
9854;SDS011;4966;48.112;9.282;2022-12-29T12:35:13;3.00;;;1.13;;
9854;SDS011;4966;48.112;9.282;2022-12-29T12:40:53;8.77;;;5.72;;
9854;SDS011;4966;48.112;9.282;2022-12-29T12:57:31;3.13;;;1.40;;
9854;SDS011;4966;48.112;9.282;2022-12-29T13:00:05;3.63;;;1.67;;
9854;SDS011;4966;48.112;9.282;2022-12-29T13:13:42;3.85;;;1.48;;
9854;SDS011;4966;48.112;9.282;2022-12-29T13:30:04;4.50;;;1.30;;
9854;SDS011;4966;48.112;9.282;2022-12-29T13:32:50;3.70;;;1.60;;
9854;SDS011;4966;48.112;9.282;2022-12-29T13:37:59;6.80;;;1.85;;
9854;SDS011;4966;48.112;9.282;2022-12-29T13:40:32;5.85;;;1.60;;
9854;SDS011;4966;48.112;9.282;2022-12-29T13:43:04;4.45;;;1.70;;
9854;SDS011;4966;48.112;9.282;2022-12-29T13:45:31;4.28;;;1.30;;
9854;SDS011;4966;48.112;9.282;2022-12-29T13:48:18;5.95;;;1.90;;
9854;SDS011;4966;48.112;9.282;2022-12-29T13:50:53;6.82;;;1.60;;
9854;SDS011;4966;48.112;9.282;2022-12-29T13:55:58;4.53;;;1.35;;
9854;SDS011;4966;48.112;9.282;2022-12-29T13:58:31;4.22;;;1.50;;
9854;SDS011;4966;48.112;9.282;2022-12-29T14:03:47;7.40;;;2.00;;
9854;SDS011;4966;48.112;9.282;2022-12-29T14:08:52;4.65;;;1.85;;
9854;SDS011;4966;48.112;9.282;2022-12-29T14:11:36;4.32;;;1.48;;
9854;SDS011;4966;48.112;9.282;2022-12-29T14:14:22;5.50;;;1.23;;
9854;SDS011;4966;48.112;9.282;2022-12-29T14:16:50;4.93;;;1.30;;
9854;SDS011;4966;48.112;9.282;2022-12-29T14:21:51;5.50;;;1.65;;
9854;SDS011;4966;48.112;9.282;2022-12-29T14:24:42;5.43;;;1.90;;
9854;SDS011;4966;48.112;9.282;2022-12-29T14:34:45;4.88;;;1.10;;
9854;SDS011;4966;48.112;9.282;2022-12-29T14:37:22;3.03;;;1.40;;
9854;SDS011;4966;48.112;9.282;2022-12-29T14:39:48;7.00;;;1.48;;
9854;SDS011;4966;48.112;9.282;2022-12-29T14:42:14;5.95;;;2.28;;
9854;SDS011;4966;48.112;9.282;2022-12-29T14:47:50;3.28;;;1.15;;
9854;SDS011;4966;48.112;9.282;2022-12-29T14:52:46;3.20;;;1.35;;
9854;SDS011;4966;48.112;9.282;2022-12-29T14:57:52;2.35;;;0.95;;
9854;SDS011;4966;48.112;9.282;2022-12-29T15:00:27;3.00;;;1.17;;
9854;SDS011;4966;48.112;9.282;2022-12-29T15:03:04;4.30;;;2.05;;
9854;SDS011;4966;48.112;9.282;2022-12-29T15:05:32;4.55;;;1.75;;
9854;SDS011;4966;48.112;9.282;2022-12-29T15:08:05;6.65;;;1.85;;
9854;SDS011;4966;48.112;9.282;2022-12-29T15:10:37;2.35;;;1.00;;
9854;SDS011;4966;48.112;9.282;2022-12-29T15:13:13;2.42;;;1.00;;
9854;SDS011;4966;48.112;9.282;2022-12-29T15:15:41;4.40;;;1.25;;
9854;SDS011;4966;48.112;9.282;2022-12-29T15:20:54;3.45;;;0.75;;
9854;SDS011;4966;48.112;9.282;2022-12-29T15:23:31;3.45;;;1.52;;
9854;SDS011;4966;48.112;9.282;2022-12-29T15:26:01;5.88;;;3.22;;
9854;SDS011;4966;48.112;9.282;2022-12-29T15:28:43;5.45;;;3.00;;
9854;SDS011;4966;48.112;9.282;2022-12-29T15:31:20;7.43;;;3.45;;
9854;SDS011;4966;48.112;9.282;2022-12-29T15:33:49;10.60;;;4.85;;
9854;SDS011;4966;48.112;9.282;2022-12-29T15:36:21;6.32;;;2.63;;
9854;SDS011;4966;48.112;9.282;2022-12-29T15:38:48;9.75;;;4.60;;
9854;SDS011;4966;48.112;9.282;2022-12-29T15:44:45;8.07;;;3.90;;
9854;SDS011;4966;48.112;9.282;2022-12-29T15:47:17;9.10;;;4.40;;
9854;SDS011;4966;48.112;9.282;2022-12-29T15:49:47;13.65;;;5.65;;
9854;SDS011;4966;48.112;9.282;2022-12-29T15:52:17;8.55;;;4.40;;
9854;SDS011;4966;48.112;9.282;2022-12-29T15:54:48;10.57;;;4.88;;
9854;SDS011;4966;48.112;9.282;2022-12-29T15:57:23;10.77;;;4.95;;
9854;SDS011;4966;48.112;9.282;2022-12-29T16:00:00;15.32;;;6.55;;
9854;SDS011;4966;48.112;9.282;2022-12-29T16:02:26;11.55;;;5.20;;
9854;SDS011;4966;48.112;9.282;2022-12-29T16:04:52;12.85;;;6.20;;
9854;SDS011;4966;48.112;9.282;2022-12-29T16:07:26;20.88;;;10.00;;
9854;SDS011;4966;48.112;9.282;2022-12-29T16:09:54;16.95;;;7.93;;
9854;SDS011;4966;48.112;9.282;2022-12-29T16:12:23;16.50;;;7.75;;
9854;SDS011;4966;48.112;9.282;2022-12-29T16:14:55;24.70;;;9.68;;
9854;SDS011;4966;48.112;9.282;2022-12-29T16:17:26;14.55;;;6.07;;
9854;SDS011;4966;48.112;9.282;2022-12-29T16:20:04;8.95;;;4.53;;
9854;SDS011;4966;48.112;9.282;2022-12-29T16:22:45;8.90;;;3.25;;
9854;SDS011;4966;48.112;9.282;2022-12-29T16:27:47;9.27;;;4.38;;
9854;SDS011;4966;48.112;9.282;2022-12-29T16:30:19;9.85;;;4.32;;
9854;SDS011;4966;48.112;9.282;2022-12-29T16:32:47;5.95;;;2.47;;
9854;SDS011;4966;48.112;9.282;2022-12-29T16:35:21;4.95;;;1.90;;
9854;SDS011;4966;48.112;9.282;2022-12-29T16:37:48;3.92;;;1.90;;
9854;SDS011;4966;48.112;9.282;2022-12-29T16:40:32;3.45;;;1.50;;
9854;SDS011;4966;48.112;9.282;2022-12-29T16:43:01;5.20;;;2.45;;
9854;SDS011;4966;48.112;9.282;2022-12-29T16:48:16;3.58;;;1.38;;
9854;SDS011;4966;48.112;9.282;2022-12-29T16:50:46;3.47;;;1.30;;
9854;SDS011;4966;48.112;9.282;2022-12-29T16:53:47;5.72;;;2.72;;
9854;SDS011;4966;48.112;9.282;2022-12-29T16:56:13;4.63;;;1.95;;
9854;SDS011;4966;48.112;9.282;2022-12-29T16:58:45;5.38;;;1.95;;
9854;SDS011;4966;48.112;9.282;2022-12-29T17:01:12;5.18;;;1.75;;
9854;SDS011;4966;48.112;9.282;2022-12-29T17:03:46;4.80;;;2.53;;
9854;SDS011;4966;48.112;9.282;2022-12-29T17:06:18;6.97;;;3.55;;
9854;SDS011;4966;48.112;9.282;2022-12-29T17:08:46;4.25;;;2.05;;
9854;SDS011;4966;48.112;9.282;2022-12-29T17:11:26;4.25;;;2.25;;
9854;SDS011;4966;48.112;9.282;2022-12-29T17:17:00;2.90;;;1.10;;
9854;SDS011;4966;48.112;9.282;2022-12-29T17:19:33;4.43;;;1.40;;
9854;SDS011;4966;48.112;9.282;2022-12-29T17:22:01;4.63;;;2.20;;
9854;SDS011;4966;48.112;9.282;2022-12-29T17:24:27;9.60;;;4.50;;
9854;SDS011;4966;48.112;9.282;2022-12-29T17:26:54;7.32;;;3.38;;
9854;SDS011;4966;48.112;9.282;2022-12-29T17:32:05;7.70;;;3.33;;
9854;SDS011;4966;48.112;9.282;2022-12-29T17:34:34;8.35;;;3.13;;
9854;SDS011;4966;48.112;9.282;2022-12-29T17:36:59;5.88;;;2.50;;
9854;SDS011;4966;48.112;9.282;2022-12-29T17:39:25;7.47;;;3.13;;
9854;SDS011;4966;48.112;9.282;2022-12-29T17:41:50;9.85;;;4.43;;
9854;SDS011;4966;48.112;9.282;2022-12-29T17:44:16;8.30;;;2.95;;
9854;SDS011;4966;48.112;9.282;2022-12-29T17:46:43;7.43;;;2.63;;
9854;SDS011;4966;48.112;9.282;2022-12-29T17:49:16;6.00;;;2.33;;
9854;SDS011;4966;48.112;9.282;2022-12-29T17:51:43;4.35;;;1.13;;
9854;SDS011;4966;48.112;9.282;2022-12-29T17:54:17;8.88;;;2.33;;
9854;SDS011;4966;48.112;9.282;2022-12-29T17:56:47;3.13;;;1.50;;
9854;SDS011;4966;48.112;9.282;2022-12-29T17:59:13;8.85;;;3.15;;
9854;SDS011;4966;48.112;9.282;2022-12-29T18:01:40;10.02;;;3.55;;
9854;SDS011;4966;48.112;9.282;2022-12-29T18:04:13;17.08;;;5.78;;
9854;SDS011;4966;48.112;9.282;2022-12-29T18:06:43;7.68;;;1.50;;
9854;SDS011;4966;48.112;9.282;2022-12-29T18:09:10;4.75;;;1.15;;
9854;SDS011;4966;48.112;9.282;2022-12-29T18:11:39;4.32;;;1.73;;